sensor_id;sensor_type;location;lat;lon;timestamp;pressure;altitude;pressure_sealevel;temperature;humidity
32324;BME280;25666;44.350;9.222;2023-04-08T00:01:37;101594.34;;;9.38;100.00
32324;BME280;25666;44.350;9.222;2023-04-08T00:04:03;101588.28;;;9.36;100.00
32324;BME280;25666;44.350;9.222;2023-04-08T00:06:28;101590.25;;;9.36;100.00
32324;BME280;25666;44.350;9.222;2023-04-08T00:08:54;101592.38;;;9.39;100.00
32324;BME280;25666;44.350;9.222;2023-04-08T00:11:19;101602.03;;;9.41;100.00
32324;BME280;25666;44.350;9.222;2023-04-08T00:13:45;101591.09;;;9.45;100.00
32324;BME280;25666;44.350;9.222;2023-04-08T00:16:10;101597.41;;;9.37;100.00
32324;BME280;25666;44.350;9.222;2023-04-08T00:18:36;101593.03;;;9.44;100.00
32324;BME280;25666;44.350;9.222;2023-04-08T00:21:03;101601.06;;;9.46;100.00
32324;BME280;25666;44.350;9.222;2023-04-08T00:23:28;101608.25;;;9.47;100.00
32324;BME280;25666;44.350;9.222;2023-04-08T00:25:54;101609.22;;;9.42;100.00
32324;BME280;25666;44.350;9.222;2023-04-08T00:28:19;101609.53;;;9.41;100.00
32324;BME280;25666;44.350;9.222;2023-04-08T00:30:45;101606.63;;;9.46;100.00
32324;BME280;25666;44.350;9.222;2023-04-08T00:33:11;101613.63;;;9.43;100.00
32324;BME280;25666;44.350;9.222;2023-04-08T00:35:37;101616.22;;;9.40;100.00
32324;BME280;25666;44.350;9.222;2023-04-08T00:38:03;101625.91;;;9.42;100.00
32324;BME280;25666;44.350;9.222;2023-04-08T00:40:32;101627.34;;;9.40;100.00
32324;BME280;25666;44.350;9.222;2023-04-08T00:42:57;101623.59;;;9.36;100.00
32324;BME280;25666;44.350;9.222;2023-04-08T00:45:23;101621.28;;;9.38;100.00
32324;BME280;25666;44.350;9.222;2023-04-08T00:47:48;101637.00;;;9.42;100.00
32324;BME280;25666;44.350;9.222;2023-04-08T00:50:17;101633.72;;;9.40;100.00
32324;BME280;25666;44.350;9.222;2023-04-08T00:52:43;101622.28;;;9.42;100.00
32324;BME280;25666;44.350;9.222;2023-04-08T00:55:08;101631.47;;;9.42;100.00
32324;BME280;25666;44.350;9.222;2023-04-08T00:57:34;101634.88;;;9.39;100.00
32324;BME280;25666;44.350;9.222;2023-04-08T01:00:01;101635.44;;;9.19;100.00
32324;BME280;25666;44.350;9.222;2023-04-08T01:02:44;101637.66;;;9.08;100.00
32324;BME280;25666;44.350;9.222;2023-04-08T01:05:35;101633.44;;;9.11;100.00
32324;BME280;25666;44.350;9.222;2023-04-08T01:08:06;101635.34;;;9.02;100.00
32324;BME280;25666;44.350;9.222;2023-04-08T01:10:34;101639.44;;;9.04;100.00
32324;BME280;25666;44.350;9.222;2023-04-08T01:13:07;101641.22;;;9.00;100.00
32324;BME280;25666;44.350;9.222;2023-04-08T01:15:35;101643.84;;;9.05;100.00
32324;BME280;25666;44.350;9.222;2023-04-08T01:18:05;101635.19;;;9.07;100.00
32324;BME280;25666;44.350;9.222;2023-04-08T01:20:31;101631.59;;;9.06;100.00
32324;BME280;25666;44.350;9.222;2023-04-08T01:25:49;101619.72;;;8.84;100.00
32324;BME280;25666;44.350;9.222;2023-04-08T01:28:16;101609.88;;;8.78;100.00
32324;BME280;25666;44.350;9.222;2023-04-08T01:30:44;101618.28;;;8.64;100.00
32324;BME280;25666;44.350;9.222;2023-04-08T01:33:11;101615.13;;;8.57;100.00
32324;BME280;25666;44.350;9.222;2023-04-08T01:35:38;101614.78;;;8.81;100.00
32324;BME280;25666;44.350;9.222;2023-04-08T01:38:06;101597.88;;;8.91;100.00
32324;BME280;25666;44.350;9.222;2023-04-08T01:40:34;101605.72;;;8.89;100.00
32324;BME280;25666;44.350;9.222;2023-04-08T01:43:03;101597.56;;;8.92;100.00
32324;BME280;25666;44.350;9.222;2023-04-08T01:45:29;101597.03;;;8.90;100.00
32324;BME280;25666;44.350;9.222;2023-04-08T01:47:56;101582.41;;;8.98;100.00
32324;BME280;25666;44.350;9.222;2023-04-08T01:50:23;101590.75;;;8.98;100.00
32324;BME280;25666;44.350;9.222;2023-04-08T01:52:50;101577.44;;;8.87;100.00
32324;BME280;25666;44.350;9.222;2023-04-08T01:55:18;101574.16;;;8.85;100.00
32324;BME280;25666;44.350;9.222;2023-04-08T01:57:48;101578.28;;;8.96;100.00
32324;BME280;25666;44.350;9.222;2023-04-08T02:00:18;101574.84;;;8.90;100.00
32324;BME280;25666;44.350;9.222;2023-04-08T02:02:50;101573.06;;;8.94;100.00
32324;BME280;25666;44.350;9.222;2023-04-08T02:05:16;101580.13;;;9.00;100.00
32324;BME280;25666;44.350;9.222;2023-04-08T02:07:41;101573.75;;;9.00;100.00
32324;BME280;25666;44.350;9.222;2023-04-08T02:10:07;101582.97;;;8.87;100.00
32324;BME280;25666;44.350;9.222;2023-04-08T02:12:33;101572.91;;;8.69;100.00
32324;BME280;25666;44.350;9.222;2023-04-08T02:14:59;101575.06;;;8.72;100.00
32324;BME280;25666;44.350;9.222;2023-04-08T02:17:30;101575.69;;;8.69;100.00
32324;BME280;25666;44.350;9.222;2023-04-08T02:20:10;101574.34;;;8.57;100.00
32324;BME280;25666;44.350;9.222;2023-04-08T02:25:13;101563.13;;;8.71;100.00
32324;BME280;25666;44.350;9.222;2023-04-08T02:27:40;101570.59;;;8.62;100.00
32324;BME280;25666;44.350;9.222;2023-04-08T02:30:07;101568.88;;;8.75;100.00
32324;BME280;25666;44.350;9.222;2023-04-08T02:32:35;101563.19;;;8.80;100.00
32324;BME280;25666;44.350;9.222;2023-04-08T02:35:01;101567.63;;;8.58;100.00
32324;BME280;25666;44.350;9.222;2023-04-08T02:37:29;101574.16;;;8.54;100.00
32324;BME280;25666;44.350;9.222;2023-04-08T02:39:55;101570.97;;;8.69;100.00
32324;BME280;25666;44.350;9.222;2023-04-08T02:42:20;101577.97;;;8.67;100.00
32324;BME280;25666;44.350;9.222;2023-04-08T02:44:46;101572.66;;;8.79;100.00
32324;BME280;25666;44.350;9.222;2023-04-08T02:47:11;101571.88;;;8.87;100.00
32324;BME280;25666;44.350;9.222;2023-04-08T02:49:37;101574.34;;;8.88;100.00
32324;BME280;25666;44.350;9.222;2023-04-08T02:52:03;101576.16;;;8.93;100.00
32324;BME280;25666;44.350;9.222;2023-04-08T02:54:29;101573.88;;;8.95;100.00
32324;BME280;25666;44.350;9.222;2023-04-08T02:56:54;101573.72;;;8.91;100.00
32324;BME280;25666;44.350;9.222;2023-04-08T02:59:20;101579.06;;;8.88;100.00
32324;BME280;25666;44.350;9.222;2023-04-08T03:01:45;101573.38;;;8.93;100.00
32324;BME280;25666;44.350;9.222;2023-04-08T03:04:11;101570.94;;;8.91;100.00
32324;BME280;25666;44.350;9.222;2023-04-08T03:06:36;101562.13;;;8.89;100.00
32324;BME280;25666;44.350;9.222;2023-04-08T03:09:02;101565.03;;;8.93;100.00
32324;BME280;25666;44.350;9.222;2023-04-08T03:11:27;101570.47;;;8.98;100.00
32324;BME280;25666;44.350;9.222;2023-04-08T03:13:53;101570.59;;;8.93;100.00
32324;BME280;25666;44.350;9.222;2023-04-08T03:16:18;101567.34;;;8.91;100.00
32324;BME280;25666;44.350;9.222;2023-04-08T03:18:44;101573.97;;;8.81;100.00
32324;BME280;25666;44.350;9.222;2023-04-08T03:21:09;101573.84;;;8.86;100.00
32324;BME280;25666;44.350;9.222;2023-04-08T03:23:34;101562.88;;;8.81;100.00
32324;BME280;25666;44.350;9.222;2023-04-08T03:26:00;101566.88;;;8.67;100.00
32324;BME280;25666;44.350;9.222;2023-04-08T03:28:25;101564.75;;;8.64;100.00
32324;BME280;25666;44.350;9.222;2023-04-08T03:30:51;101565.69;;;8.59;100.00
32324;BME280;25666;44.350;9.222;2023-04-08T03:33:19;101562.19;;;8.45;100.00
32324;BME280;25666;44.350;9.222;2023-04-08T03:35:47;101570.72;;;8.57;100.00
32324;BME280;25666;44.350;9.222;2023-04-08T03:38:13;101558.09;;;8.42;100.00
32324;BME280;25666;44.350;9.222;2023-04-08T03:40:38;101567.16;;;8.21;100.00
32324;BME280;25666;44.350;9.222;2023-04-08T03:43:04;101560.56;;;8.30;100.00
32324;BME280;25666;44.350;9.222;2023-04-08T03:45:30;101558.09;;;8.42;100.00
32324;BME280;25666;44.350;9.222;2023-04-08T03:47:56;101553.19;;;8.26;100.00
32324;BME280;25666;44.350;9.222;2023-04-08T03:50:21;101555.28;;;8.20;100.00
32324;BME280;25666;44.350;9.222;2023-04-08T03:52:47;101561.81;;;8.24;100.00
32324;BME280;25666;44.350;9.222;2023-04-08T03:55:13;101563.94;;;8.27;100.00
32324;BME280;25666;44.350;9.222;2023-04-08T03:57:42;101553.81;;;8.36;100.00
32324;BME280;25666;44.350;9.222;2023-04-08T04:00:08;101553.63;;;8.19;100.00
32324;BME280;25666;44.350;9.222;2023-04-08T04:02:37;101558.69;;;8.17;100.00
32324;BME280;25666;44.350;9.222;2023-04-08T04:05:03;101562.09;;;8.14;100.00
32324;BME280;25666;44.350;9.222;2023-04-08T04:07:28;101565.53;;;8.20;100.00
32324;BME280;25666;44.350;9.222;2023-04-08T04:09:54;101557.09;;;8.25;100.00
32324;BME280;25666;44.350;9.222;2023-04-08T04:12:22;101565.09;;;8.26;100.00
32324;BME280;25666;44.350;9.222;2023-04-08T04:14:47;101555.56;;;8.32;100.00
32324;BME280;25666;44.350;9.222;2023-04-08T04:17:13;101564.50;;;8.29;100.00
32324;BME280;25666;44.350;9.222;2023-04-08T04:19:38;101563.16;;;8.27;100.00
32324;BME280;25666;44.350;9.222;2023-04-08T04:22:03;101569.84;;;8.26;100.00
32324;BME280;25666;44.350;9.222;2023-04-08T04:24:29;101564.06;;;8.36;100.00
32324;BME280;25666;44.350;9.222;2023-04-08T04:26:54;101568.78;;;8.35;100.00
32324;BME280;25666;44.350;9.222;2023-04-08T04:29:20;101566.72;;;8.41;100.00
32324;BME280;25666;44.350;9.222;2023-04-08T04:31:46;101571.88;;;8.34;100.00
32324;BME280;25666;44.350;9.222;2023-04-08T04:34:11;101571.56;;;8.35;100.00
32324;BME280;25666;44.350;9.222;2023-04-08T04:36:37;101570.25;;;8.33;100.00
32324;BME280;25666;44.350;9.222;2023-04-08T04:39:02;101576.97;;;8.40;100.00
32324;BME280;25666;44.350;9.222;2023-04-08T04:41:28;101582.47;;;8.32;100.00
32324;BME280;25666;44.350;9.222;2023-04-08T04:43:53;101583.69;;;8.39;100.00
32324;BME280;25666;44.350;9.222;2023-04-08T04:46:18;101582.03;;;8.38;100.00
32324;BME280;25666;44.350;9.222;2023-04-08T04:48:44;101586.47;;;8.39;100.00
32324;BME280;25666;44.350;9.222;2023-04-08T04:51:10;101587.78;;;8.42;100.00
32324;BME280;25666;44.350;9.222;2023-04-08T04:53:35;101592.25;;;8.29;100.00
32324;BME280;25666;44.350;9.222;2023-04-08T04:56:01;101593.94;;;8.39;100.00
32324;BME280;25666;44.350;9.222;2023-04-08T04:58:26;101592.34;;;8.46;100.00
32324;BME280;25666;44.350;9.222;2023-04-08T05:00:52;101599.56;;;8.47;100.00
32324;BME280;25666;44.350;9.222;2023-04-08T05:03:18;101597.66;;;8.56;100.00
32324;BME280;25666;44.350;9.222;2023-04-08T05:05:43;101595.56;;;8.62;100.00
32324;BME280;25666;44.350;9.222;2023-04-08T05:08:08;101595.56;;;8.62;100.00
32324;BME280;25666;44.350;9.222;2023-04-08T05:10:34;101593.56;;;8.76;100.00
32324;BME280;25666;44.350;9.222;2023-04-08T05:12:59;101592.38;;;8.77;100.00
32324;BME280;25666;44.350;9.222;2023-04-08T05:15:25;101590.25;;;8.74;100.00
32324;BME280;25666;44.350;9.222;2023-04-08T05:17:50;101584.69;;;8.74;100.00
32324;BME280;25666;44.350;9.222;2023-04-08T05:20:16;101586.72;;;8.82;100.00
32324;BME280;25666;44.350;9.222;2023-04-08T05:22:41;101581.25;;;8.99;100.00
32324;BME280;25666;44.350;9.222;2023-04-08T05:25:10;101584.53;;;9.01;100.00
32324;BME280;25666;44.350;9.222;2023-04-08T05:27:36;101594.41;;;8.85;100.00
32324;BME280;25666;44.350;9.222;2023-04-08T05:30:01;101601.22;;;9.01;100.00
32324;BME280;25666;44.350;9.222;2023-04-08T05:32:28;101590.97;;;9.19;100.00
32324;BME280;25666;44.350;9.222;2023-04-08T05:34:53;101602.47;;;9.26;100.00
32324;BME280;25666;44.350;9.222;2023-04-08T05:37:19;101601.84;;;9.38;100.00
32324;BME280;25666;44.350;9.222;2023-04-08T05:39:44;101595.56;;;9.72;100.00
32324;BME280;25666;44.350;9.222;2023-04-08T05:42:10;101601.56;;;9.56;100.00
32324;BME280;25666;44.350;9.222;2023-04-08T05:44:38;101607.00;;;9.70;100.00
32324;BME280;25666;44.350;9.222;2023-04-08T05:47:05;101609.97;;;10.94;100.00
32324;BME280;25666;44.350;9.222;2023-04-08T05:49:32;101601.69;;;12.11;100.00
32324;BME280;25666;44.350;9.222;2023-04-08T05:51:58;101589.31;;;13.19;100.00
32324;BME280;25666;44.350;9.222;2023-04-08T05:54:23;101586.03;;;14.02;100.00
32324;BME280;25666;44.350;9.222;2023-04-08T05:56:49;101590.97;;;13.80;100.00
32324;BME280;25666;44.350;9.222;2023-04-08T05:59:15;101591.72;;;12.63;100.00
32324;BME280;25666;44.350;9.222;2023-04-08T06:01:40;101593.59;;;12.18;100.00
32324;BME280;25666;44.350;9.222;2023-04-08T06:04:06;101595.84;;;13.95;100.00
32324;BME280;25666;44.350;9.222;2023-04-08T06:06:31;101608.72;;;16.55;100.00
32324;BME280;25666;44.350;9.222;2023-04-08T06:08:57;101607.81;;;16.71;100.00
32324;BME280;25666;44.350;9.222;2023-04-08T06:11:22;101601.63;;;17.72;100.00
32324;BME280;25666;44.350;9.222;2023-04-08T06:13:47;101596.66;;;18.44;100.00
32324;BME280;25666;44.350;9.222;2023-04-08T06:16:15;101602.56;;;18.65;100.00
32324;BME280;25666;44.350;9.222;2023-04-08T06:18:44;101596.84;;;19.32;88.45
32324;BME280;25666;44.350;9.222;2023-04-08T06:21:09;101606.38;;;19.57;71.57
32324;BME280;25666;44.350;9.222;2023-04-08T06:23:35;101604.78;;;20.21;61.50
32324;BME280;25666;44.350;9.222;2023-04-08T06:26:01;101591.09;;;21.45;53.83
32324;BME280;25666;44.350;9.222;2023-04-08T06:28:30;101600.72;;;20.08;57.74
32324;BME280;25666;44.350;9.222;2023-04-08T06:30:57;101594.06;;;20.48;66.04
32324;BME280;25666;44.350;9.222;2023-04-08T06:33:22;101596.81;;;16.62;82.46
32324;BME280;25666;44.350;9.222;2023-04-08T06:35:48;101609.41;;;15.64;100.00
32324;BME280;25666;44.350;9.222;2023-04-08T06:38:13;101607.13;;;14.51;100.00
32324;BME280;25666;44.350;9.222;2023-04-08T06:40:39;101609.28;;;13.78;100.00
32324;BME280;25666;44.350;9.222;2023-04-08T06:43:04;101598.41;;;13.88;100.00
32324;BME280;25666;44.350;9.222;2023-04-08T06:45:36;101604.72;;;17.40;100.00
32324;BME280;25666;44.350;9.222;2023-04-08T06:48:01;101600.75;;;19.60;74.27
32324;BME280;25666;44.350;9.222;2023-04-08T06:50:27;101601.94;;;21.07;60.64
32324;BME280;25666;44.350;9.222;2023-04-08T06:52:52;101600.81;;;21.29;70.12
32324;BME280;25666;44.350;9.222;2023-04-08T06:55:19;101590.47;;;22.70;55.07
32324;BME280;25666;44.350;9.222;2023-04-08T06:57:44;101588.22;;;23.06;48.63
32324;BME280;25666;44.350;9.222;2023-04-08T07:00:10;101588.13;;;23.75;49.16
32324;BME280;25666;44.350;9.222;2023-04-08T07:02:36;101576.34;;;23.76;44.79
32324;BME280;25666;44.350;9.222;2023-04-08T07:05:01;101585.00;;;24.03;44.94
32324;BME280;25666;44.350;9.222;2023-04-08T07:07:27;101581.34;;;23.62;44.78
32324;BME280;25666;44.350;9.222;2023-04-08T07:09:52;101590.41;;;23.90;45.94
32324;BME280;25666;44.350;9.222;2023-04-08T07:12:17;101587.38;;;24.12;47.07
32324;BME280;25666;44.350;9.222;2023-04-08T07:14:43;101587.91;;;24.37;43.45
32324;BME280;25666;44.350;9.222;2023-04-08T07:17:09;101581.44;;;23.95;43.54
32324;BME280;25666;44.350;9.222;2023-04-08T07:19:35;101584.38;;;24.26;44.49
32324;BME280;25666;44.350;9.222;2023-04-08T07:22:00;101588.53;;;22.46;46.36
32324;BME280;25666;44.350;9.222;2023-04-08T07:24:26;101586.69;;;24.34;40.57
32324;BME280;25666;44.350;9.222;2023-04-08T07:26:52;101580.13;;;22.10;45.96
32324;BME280;25666;44.350;9.222;2023-04-08T07:29:17;101583.19;;;19.85;54.59
32324;BME280;25666;44.350;9.222;2023-04-08T07:31:43;101588.66;;;18.83;61.84
32324;BME280;25666;44.350;9.222;2023-04-08T07:34:09;101591.75;;;17.81;70.23
32324;BME280;25666;44.350;9.222;2023-04-08T07:36:34;101593.63;;;17.74;83.49
32324;BME280;25666;44.350;9.222;2023-04-08T07:39:00;101594.25;;;16.95;94.62
32324;BME280;25666;44.350;9.222;2023-04-08T07:41:26;101589.19;;;16.82;91.70
32324;BME280;25666;44.350;9.222;2023-04-08T07:43:51;101592.03;;;16.28;97.48
32324;BME280;25666;44.350;9.222;2023-04-08T07:46:17;101584.09;;;16.14;87.12
32324;BME280;25666;44.350;9.222;2023-04-08T07:48:42;101594.25;;;15.84;100.00
32324;BME280;25666;44.350;9.222;2023-04-08T07:51:08;101595.44;;;15.36;100.00
32324;BME280;25666;44.350;9.222;2023-04-08T07:53:34;101590.47;;;15.61;100.00
32324;BME280;25666;44.350;9.222;2023-04-08T07:56:00;101591.56;;;15.72;100.00
32324;BME280;25666;44.350;9.222;2023-04-08T07:58:28;101588.19;;;15.35;100.00
32324;BME280;25666;44.350;9.222;2023-04-08T08:00:53;101590.38;;;15.41;100.00
32324;BME280;25666;44.350;9.222;2023-04-08T08:03:19;101597.16;;;15.25;100.00
32324;BME280;25666;44.350;9.222;2023-04-08T08:05:44;101594.53;;;15.16;100.00
32324;BME280;25666;44.350;9.222;2023-04-08T08:08:10;101607.81;;;15.19;100.00
32324;BME280;25666;44.350;9.222;2023-04-08T08:10:37;101609.44;;;15.05;100.00
32324;BME280;25666;44.350;9.222;2023-04-08T08:13:03;101615.06;;;15.05;100.00
32324;BME280;25666;44.350;9.222;2023-04-08T08:15:28;101614.16;;;14.73;92.69
32324;BME280;25666;44.350;9.222;2023-04-08T08:17:54;101605.97;;;14.80;99.04
32324;BME280;25666;44.350;9.222;2023-04-08T08:20:19;101600.22;;;15.04;100.00
32324;BME280;25666;44.350;9.222;2023-04-08T08:22:45;101605.13;;;15.23;100.00
32324;BME280;25666;44.350;9.222;2023-04-08T08:25:10;101613.38;;;15.31;100.00
32324;BME280;25666;44.350;9.222;2023-04-08T08:27:36;101616.78;;;15.09;100.00
32324;BME280;25666;44.350;9.222;2023-04-08T08:30:02;101622.91;;;14.99;100.00
32324;BME280;25666;44.350;9.222;2023-04-08T08:32:28;101628.41;;;14.95;98.07
32324;BME280;25666;44.350;9.222;2023-04-08T08:34:54;101629.78;;;15.01;100.00
32324;BME280;25666;44.350;9.222;2023-04-08T08:37:19;101629.28;;;15.12;100.00
32324;BME280;25666;44.350;9.222;2023-04-08T08:39:45;101634.50;;;15.13;90.88
32324;BME280;25666;44.350;9.222;2023-04-08T08:42:20;101629.72;;;15.14;89.34
32324;BME280;25666;44.350;9.222;2023-04-08T08:44:47;101625.03;;;15.18;98.99
32324;BME280;25666;44.350;9.222;2023-04-08T08:47:13;101638.53;;;15.28;92.06
32324;BME280;25666;44.350;9.222;2023-04-08T08:49:40;101631.56;;;15.37;76.22
32324;BME280;25666;44.350;9.222;2023-04-08T08:52:05;101633.00;;;15.47;80.39
32324;BME280;25666;44.350;9.222;2023-04-08T08:54:31;101640.22;;;15.32;73.59
32324;BME280;25666;44.350;9.222;2023-04-08T08:56:57;101642.22;;;15.32;68.31
32324;BME280;25666;44.350;9.222;2023-04-08T08:59:22;101633.84;;;15.47;67.29
32324;BME280;25666;44.350;9.222;2023-04-08T09:01:49;101632.75;;;15.52;77.61
32324;BME280;25666;44.350;9.222;2023-04-08T09:04:19;101632.22;;;15.62;94.53
32324;BME280;25666;44.350;9.222;2023-04-08T09:06:46;101636.81;;;15.70;77.17
32324;BME280;25666;44.350;9.222;2023-04-08T09:09:12;101627.66;;;15.73;72.38
32324;BME280;25666;44.350;9.222;2023-04-08T09:11:42;101633.19;;;15.70;81.48
32324;BME280;25666;44.350;9.222;2023-04-08T09:14:19;101635.28;;;15.73;75.07
32324;BME280;25666;44.350;9.222;2023-04-08T09:16:46;101631.56;;;15.84;88.36
32324;BME280;25666;44.350;9.222;2023-04-08T09:19:12;101630.69;;;15.65;100.00
32324;BME280;25666;44.350;9.222;2023-04-08T09:21:38;101627.16;;;15.68;100.00
32324;BME280;25666;44.350;9.222;2023-04-08T09:24:05;101624.72;;;15.66;100.00
32324;BME280;25666;44.350;9.222;2023-04-08T09:26:30;101632.94;;;15.75;100.00
32324;BME280;25666;44.350;9.222;2023-04-08T09:29:04;101628.06;;;15.56;100.00
32324;BME280;25666;44.350;9.222;2023-04-08T09:31:32;101625.16;;;15.68;100.00
32324;BME280;25666;44.350;9.222;2023-04-08T09:33:59;101627.94;;;15.84;100.00
32324;BME280;25666;44.350;9.222;2023-04-08T09:36:26;101631.47;;;15.81;100.00
32324;BME280;25666;44.350;9.222;2023-04-08T09:38:53;101631.28;;;15.89;100.00
32324;BME280;25666;44.350;9.222;2023-04-08T09:41:22;101635.84;;;15.78;100.00
32324;BME280;25666;44.350;9.222;2023-04-08T09:43:49;101621.25;;;15.73;100.00
32324;BME280;25666;44.350;9.222;2023-04-08T09:46:17;101634.41;;;15.69;100.00
32324;BME280;25666;44.350;9.222;2023-04-08T09:48:48;101628.88;;;15.72;100.00
32324;BME280;25666;44.350;9.222;2023-04-08T09:51:16;101635.28;;;15.73;100.00
32324;BME280;25666;44.350;9.222;2023-04-08T09:53:52;101626.84;;;15.88;96.50
32324;BME280;25666;44.350;9.222;2023-04-08T09:56:20;101634.38;;;15.84;100.00
32324;BME280;25666;44.350;9.222;2023-04-08T09:59:13;101637.44;;;15.79;97.50
32324;BME280;25666;44.350;9.222;2023-04-08T10:01:49;101636.44;;;15.87;97.17
32324;BME280;25666;44.350;9.222;2023-04-08T10:04:19;101637.53;;;15.83;100.00
32324;BME280;25666;44.350;9.222;2023-04-08T10:06:51;101631.38;;;15.77;100.00
32324;BME280;25666;44.350;9.222;2023-04-08T10:09:20;101634.53;;;15.91;100.00
32324;BME280;25666;44.350;9.222;2023-04-08T10:11:46;101626.91;;;15.92;100.00
32324;BME280;25666;44.350;9.222;2023-04-08T10:14:13;101633.03;;;15.78;100.00
32324;BME280;25666;44.350;9.222;2023-04-08T10:16:39;101628.06;;;15.72;100.00
32324;BME280;25666;44.350;9.222;2023-04-08T10:19:37;101628.94;;;15.60;93.58
32324;BME280;25666;44.350;9.222;2023-04-08T10:22:45;101624.78;;;15.70;100.00
32324;BME280;25666;44.350;9.222;2023-04-08T10:27:43;101620.44;;;15.72;100.00
32324;BME280;25666;44.350;9.222;2023-04-08T10:30:43;101628.03;;;15.87;100.00
32324;BME280;25666;44.350;9.222;2023-04-08T10:35:35;101634.81;;;15.86;100.00
32324;BME280;25666;44.350;9.222;2023-04-08T10:38:02;101631.38;;;15.93;91.91
32324;BME280;25666;44.350;9.222;2023-04-08T10:40:28;101626.41;;;15.86;98.10
32324;BME280;25666;44.350;9.222;2023-04-08T10:45:42;101622.25;;;15.65;97.77
32324;BME280;25666;44.350;9.222;2023-04-08T10:48:21;101628.59;;;15.62;92.21
32324;BME280;25666;44.350;9.222;2023-04-08T10:53:30;101618.19;;;15.62;90.27
32324;BME280;25666;44.350;9.222;2023-04-08T10:56:07;101621.44;;;15.64;100.00
32324;BME280;25666;44.350;9.222;2023-04-08T10:58:35;101617.78;;;15.79;100.00
32324;BME280;25666;44.350;9.222;2023-04-08T11:01:05;101624.31;;;15.83;94.19
32324;BME280;25666;44.350;9.222;2023-04-08T11:03:34;101618.69;;;15.83;100.00
32324;BME280;25666;44.350;9.222;2023-04-08T11:06:01;101619.09;;;15.82;95.36
32324;BME280;25666;44.350;9.222;2023-04-08T11:08:31;101615.16;;;15.86;97.88
32324;BME280;25666;44.350;9.222;2023-04-08T11:10:58;101615.91;;;15.83;100.00
32324;BME280;25666;44.350;9.222;2023-04-08T11:13:26;101615.50;;;16.00;100.00
32324;BME280;25666;44.350;9.222;2023-04-08T11:15:52;101614.34;;;15.86;82.87
32324;BME280;25666;44.350;9.222;2023-04-08T11:18:18;101611.19;;;15.87;82.86
32324;BME280;25666;44.350;9.222;2023-04-08T11:20:43;101607.09;;;16.00;90.76
32324;BME280;25666;44.350;9.222;2023-04-08T11:23:12;101603.00;;;15.98;73.94
32324;BME280;25666;44.350;9.222;2023-04-08T11:25:39;101607.19;;;15.88;80.24
32324;BME280;25666;44.350;9.222;2023-04-08T11:28:06;101598.94;;;15.95;80.61
32324;BME280;25666;44.350;9.222;2023-04-08T11:30:31;101600.75;;;16.03;89.58
32324;BME280;25666;44.350;9.222;2023-04-08T11:32:57;101590.38;;;16.07;84.25
32324;BME280;25666;44.350;9.222;2023-04-08T11:35:23;101594.00;;;16.08;78.68
32324;BME280;25666;44.350;9.222;2023-04-08T11:37:52;101591.50;;;16.03;76.60
32324;BME280;25666;44.350;9.222;2023-04-08T11:40:21;101585.34;;;15.97;70.91
32324;BME280;25666;44.350;9.222;2023-04-08T11:42:49;101589.03;;;16.01;72.06
32324;BME280;25666;44.350;9.222;2023-04-08T11:45:16;101580.78;;;16.08;70.79
32324;BME280;25666;44.350;9.222;2023-04-08T11:47:43;101584.09;;;16.14;70.27
32324;BME280;25666;44.350;9.222;2023-04-08T11:50:09;101580.63;;;16.21;78.45
32324;BME280;25666;44.350;9.222;2023-04-08T11:52:48;101576.81;;;16.29;73.80
32324;BME280;25666;44.350;9.222;2023-04-08T11:55:31;101577.41;;;16.38;73.11
32324;BME280;25666;44.350;9.222;2023-04-08T11:58:01;101581.31;;;16.52;75.65
32324;BME280;25666;44.350;9.222;2023-04-08T12:00:28;101582.41;;;16.48;79.04
32324;BME280;25666;44.350;9.222;2023-04-08T12:02:54;101579.59;;;16.48;79.34
32324;BME280;25666;44.350;9.222;2023-04-08T12:05:19;101572.00;;;16.48;83.11
32324;BME280;25666;44.350;9.222;2023-04-08T12:07:45;101574.16;;;16.55;81.41
32324;BME280;25666;44.350;9.222;2023-04-08T12:10:12;101566.56;;;16.55;79.64
32324;BME280;25666;44.350;9.222;2023-04-08T12:12:38;101555.38;;;16.78;76.94
32324;BME280;25666;44.350;9.222;2023-04-08T12:15:04;101553.56;;;16.89;77.43
32324;BME280;25666;44.350;9.222;2023-04-08T12:17:29;101554.53;;;16.78;68.14
32324;BME280;25666;44.350;9.222;2023-04-08T12:19:55;101550.31;;;16.87;67.98
32324;BME280;25666;44.350;9.222;2023-04-08T12:22:21;101554.53;;;16.78;66.56
32324;BME280;25666;44.350;9.222;2023-04-08T12:24:47;101552.38;;;16.90;66.69
32324;BME280;25666;44.350;9.222;2023-04-08T12:27:12;101548.75;;;16.90;65.91
32324;BME280;25666;44.350;9.222;2023-04-08T12:29:38;101549.88;;;17.08;67.20
32324;BME280;25666;44.350;9.222;2023-04-08T12:32:06;101543.13;;;17.12;67.10
32324;BME280;25666;44.350;9.222;2023-04-08T12:34:32;101543.25;;;17.20;65.00
32324;BME280;25666;44.350;9.222;2023-04-08T12:36:57;101539.16;;;17.40;72.26
32324;BME280;25666;44.350;9.222;2023-04-08T12:39:24;101547.28;;;17.45;65.59
32324;BME280;25666;44.350;9.222;2023-04-08T12:41:49;101548.00;;;17.38;66.78
32324;BME280;25666;44.350;9.222;2023-04-08T12:44:15;101542.59;;;17.30;65.50
32324;BME280;25666;44.350;9.222;2023-04-08T12:46:40;101541.22;;;17.43;63.04
32324;BME280;25666;44.350;9.222;2023-04-08T12:49:06;101542.03;;;17.66;63.82
32324;BME280;25666;44.350;9.222;2023-04-08T12:51:32;101534.13;;;17.52;60.13
32324;BME280;25666;44.350;9.222;2023-04-08T12:53:57;101538.81;;;17.41;57.99
32324;BME280;25666;44.350;9.222;2023-04-08T12:56:24;101537.31;;;17.25;58.07
32324;BME280;25666;44.350;9.222;2023-04-08T13:01:31;101543.06;;;17.09;60.10
32324;BME280;25666;44.350;9.222;2023-04-08T13:06:47;101547.06;;;17.08;57.15
32324;BME280;25666;44.350;9.222;2023-04-08T13:09:12;101548.13;;;17.23;59.02